• Join FlightAware (Why Join?)
  • Login
  • US Flag 
11:13AM EDT


 

Airport Tracker/Info


-or-


 

Live Flight TrackerFlight Track Log ✈ N770NC ✈ 11-Jun-2013 ✈ KMEM - KDTW

Flight Track Log - Related Links

Times and Time Zones

All times are in EDT time to prevent confusion due to time zone crossing. See the N770NC flight status page for this flight to view local times or setup timezone preferences in your user account.

Time Position Orientation Groundspeed Altitude Reporting Facility
EDT Latitude Longitude Course Direction KTS MPH feet Rate Location/Type
06:13PM 35.0333 -89.9667 33° Northeast 136 157 1,000  Level KMEM
06:13PM 35.0000 -89.9667 180° South 207 238 1,600 1,200 Climbing KMEM
06:14PM 34.9333 -89.9333 158° South 271 312 3,000 1,680 Climbing KMEM
06:15PM 34.8833 -89.9000 151° Southeast 290 334 4,700 1,980 Climbing KMEM
06:16PM 35.3526 -89.7239 29° Northeast  Level FlightAware Approximate
06:16PM 34.9333 -89.8167 54° Northeast 302 348 7,600  Level KMEM
06:17PM 35.4480 -89.6579 29° Northeast  Level FlightAware Approximate
06:18PM 35.5411 -89.5872 33° Northeast  Level FlightAware Approximate
06:18PM 35.0875 -89.7861 North 342 394 11,100  Level Memphis Center
06:19PM 35.1811 -89.7728 North 349 402 14,400 2,700 Climbing Memphis Center
06:20PM 35.2792 -89.7567 North 349 402 16,500 2,160 Climbing Memphis Center
06:21PM 35.3769 -89.7128 20° North 354 407 18,800 2,280 Climbing Memphis Center
06:22PM 35.4747 -89.6508 27° Northeast 376 433 21,100 1,920 Climbing Memphis Center
06:23PM 35.5703 -89.5836 30° Northeast 385 443 22,700 1,260 Climbing Memphis Center
06:24PM 35.6761 -89.5033 32° Northeast 410 472 23,700 1,860 Climbing Memphis Center
06:25PM 35.7714 -89.4358 30° Northeast 419 482 26,500 2,220 Climbing Memphis Center
06:26PM 35.8772 -89.3733 26° Northeast 414 476 28,200 1,200 Climbing Memphis Center
06:27PM 35.9811 -89.3078 27° Northeast 409 471 29,000 360 Climbing Memphis Center
06:28PM 36.0889 -89.2269 31° Northeast 423 487 29,000  Level Memphis Center
06:29PM 36.2047 -89.1481 29° Northeast 446 513 29,000  Level Memphis Center
06:30PM 36.3269 -89.0767 25° Northeast 468 539 29,000  Level Memphis Center
06:31PM 36.4472 -89.0025 26° Northeast 474 545 29,000  Level Memphis Center
06:32PM 36.5608 -88.9206 30° Northeast 474 545 29,000  Level Memphis Center
06:33PM 36.6664 -88.8489 29° Northeast 474 545 29,000  Level Memphis Center
06:34PM 36.7758 -88.7614 33° Northeast 469 540 29,000  Level Memphis Center
06:35PM 36.8892 -88.6786 30° Northeast 469 540 29,000  Level Memphis Center
06:36PM 37.0028 -88.5958 30° Northeast 469 540 29,000  Level Memphis Center
06:37PM 37.1117 -88.5047 34° Northeast 469 540 29,000  Level Memphis Center
06:38PM 37.2228 -88.4111 34° Northeast 469 540 29,000  Level Memphis Center
06:40PM 37.3797 -88.2442 40° Northeast 474 545 29,000  Level Indianapolis Center
06:41PM 37.4881 -88.1453 36° Northeast 475 547 29,000  Level Indianapolis Center
06:42PM 37.5942 -88.0433 37° Northeast 472 543 29,000  Level Indianapolis Center
06:43PM 37.7164 -87.9244 38° Northeast 471 542 29,000  Level Indianapolis Center
06:44PM 37.8228 -87.8483 29° Northeast 470 541 29,000 -60 Level Indianapolis Center
06:45PM 37.9386 -87.7703 28° Northeast 468 539 28,900 -660 Descending Indianapolis Center
06:46PM 38.0622 -87.7181 18° North 465 535 27,700 -960 Descending Indianapolis Center
06:47PM 38.1850 -87.6675 18° North 460 529 27,000 -360 Descending Indianapolis Center
06:48PM 38.3069 -87.5558 36° Northeast 463 533 27,000  Level Indianapolis Center
06:49PM 38.3911 -87.4339 49° Northeast 456 525 27,000  Level Indianapolis Center
06:50PM 38.4853 -87.3194 44° Northeast 459 528 27,000  Level Indianapolis Center
06:51PM 38.5814 -87.2117 41° Northeast 456 525 27,100  Climbing Indianapolis Center
06:52PM 38.6925 -87.1375 28° Northeast 447 514 27,000 -60 Descending Indianapolis Center
06:53PM 38.8075 -87.0656 26° Northeast 454 522 27,000  Level Indianapolis Center
06:54PM 38.9178 -86.9786 32° Northeast 461 531 27,000  Level Indianapolis Center
06:55PM 39.0253 -86.8864 34° Northeast 461 531 27,000  Level Indianapolis Center
06:56PM 39.1486 -86.7889 32° Northeast 454 522 27,000  Level Indianapolis Center
06:57PM 39.2608 -86.7225 25° Northeast 444 511 27,000  Level Indianapolis Center
06:58PM 39.3781 -86.6797 16° North 438 504 27,000  Level Indianapolis Center
06:59PM 39.4897 -86.6161 24° Northeast 436 502 27,000  Level Indianapolis Center
07:00PM 39.5958 -86.5311 32° Northeast 445 512 27,000  Level Indianapolis Center
07:01PM 39.7094 -86.4514 28° Northeast 455 524 27,000  Level Indianapolis Center
07:02PM 39.8256 -86.3586 32° Northeast 482 555 27,000  Level Indianapolis Center
07:03PM 39.9253 -86.2358 43° Northeast 483 556 27,000  Level Indianapolis Center
07:04PM 40.0308 -86.0767 49° Northeast 491 565 27,000  Level Indianapolis Center
07:05PM 40.0878 -85.9164 65° Northeast 489 563 27,000  Level Indianapolis Center
07:07PM 40.1528 -85.7661 60° Northeast 478 550 27,000  Level Indianapolis Center
07:08PM 40.2122 -85.6189 62° Northeast 465 535 27,000  Level Indianapolis Center
07:09PM 40.2758 -85.4786 59° Northeast 452 520 27,000  Level Indianapolis Center
07:10PM 40.3364 -85.3322 61° Northeast 457 526 27,000 -360 Level Indianapolis Center
07:11PM 40.4108 -85.1514 62° Northeast 465 535 26,200 -840 Descending Chicago Center
07:12PM 40.4781 -85.0056 59° Northeast 469 540 25,300 -960 Descending Indianapolis Center
07:13PM 40.5367 -84.8608 62° Northeast 476 548 24,400 -780 Descending Indianapolis Center
07:14PM 40.6300 -84.7589 40° Northeast 449 517 23,700 -720 Descending Indianapolis Center
07:15PM 40.7669 -84.7717 356° North 419 482 23,000 -540 Descending Indianapolis Center
07:16PM 40.8811 -84.7869 354° North 409 471 22,600 -720 Descending Indianapolis Center
07:17PM 41.0039 -84.7378 17° North 436 502 21,500 -720 Descending Chicago Center
07:18PM 41.1025 -84.6564 32° Northeast 424 488 21,000 -300 Descending Chicago Center
07:19PM 41.2233 -84.5719 28° Northeast 413 475 21,000  Level Chicago Center
07:20PM 41.3200 -84.4917 32° Northeast 413 475 21,100  Climbing Chicago Center
07:21PM 41.4197 -84.4092 32° Northeast 423 487 21,000 -960 Descending Chicago Center
07:22PM 41.5225 -84.3411 26° Northeast 417 480 19,200 -2,580 Descending Chicago Center
07:23PM 41.6297 -84.2672 27° Northeast 361 415 15,700 -3,180 Descending Cleveland Center
07:24PM 41.7108 -84.2050 30° Northeast 360 414 12,900 -1,920 Descending Cleveland Center
07:25PM 41.7903 -84.1342 34° Northeast 362 417 12,000 -480 Descending Cleveland Center
07:26PM 41.8439 -84.0144 59° Northeast 342 394 12,000  Level Cleveland Center
07:27PM 41.9156 -83.9206 44° Northeast 348 400 12,000  Level Cleveland Center
07:28PM 41.9864 -83.8461 38° Northeast 356 410 12,000  Level Cleveland Center
07:29PM 42.0642 -83.7494 43° Northeast 361 415 12,000  Level Cleveland Center
07:30PM 42.1353 -83.6661 41° Northeast 302 348 12,000  Level Cleveland Center
07:31PM 42.1933 -83.5989 41° Northeast 260 299 12,000 -540 Level Cleveland Center
07:32PM 42.2531 -83.5456 33° Northeast 246 283 11,000 -1,740 Descending Cleveland Center
07:33PM 42.3233 -83.4928 29° Northeast 263 303 8,400 -2,040 Descending Cleveland Center
07:34PM 42.3769 -83.4361 38° Northeast 248 285 6,800 -1,560 Descending Cleveland Center
07:35PM 42.4303 -83.3881 34° Northeast 234 269 5,400 -1,140 Descending Cleveland Center
07:36PM 42.4569 -83.3131 64° Northeast 241 277 4,700 -660 Descending Cleveland Center
07:37PM 42.4228 -83.2581 130° Southeast 193 222 4,100 -420 Descending Cleveland Center
07:38PM 42.3811 -83.2647 187° South 180 207 3,900 -300 Descending Cleveland Center